Maersk Klaipeda — VRGL5 — position and weather

sailwx.info

Track history (hours):
 
Tides and Currents Weather Stations Pressure Air Temp Water Temp Dewpoint Dewpoint Depression Visibility Wind Speed Wind Dir Waves Ship Positions

Maersk Klaipeda

Last reported at 2017-Dec-25 21:17 UTC. Time now 2018-Jan-24 07:51 UTC.
Position N 35°52' E 030°23'.
Warning: this ship's position is 29 days out of date.

Length 300 m; draft 12 m.

Type: Ship (hazmat cat A). MMSI: 477728600.

Date/timePositionNaut miles runAvg speedWind from/ knotsBaromVisibWave heightAir tempDewpointWater temp
2017-Dec-25 21:17N 35°52' E 030°23'17615.1
2017-Dec-25 09:38N 36°29' E 026°50'216.2
2017-Dec-25 09:30N 36°31' E 026°48'916.0
2017-Dec-25 08:57N 36°37' E 026°40'715.9
2017-Dec-25 08:30N 36°42' E 026°34'815.8
2017-Dec-25 08:00N 36°47' E 026°27'815.9
2017-Dec-25 07:30N 36°53' E 026°20'1016.0
2017-Dec-25 06:54N 36°60' E 026°12'616.1
2017-Dec-25 06:30N 37°06' E 026°08'816.1
2017-Dec-25 06:00N 37°13' E 026°04'816.0
2017-Dec-25 05:30N 37°20' E 026°00'815.8
2017-Dec-25 05:00N 37°27' E 025°56'816.1
2017-Dec-25 04:30N 37°35' E 025°52'1016.0
2017-Dec-25 03:53N 37°45' E 025°49'716.1
2017-Dec-25 03:25N 37°52' E 025°48'22212.1
2017-Dec-24 09:02N 40°53' E 028°33'116.2
2017-Dec-24 08:58N 40°53' E 028°34'611.6
2017-Dec-24 08:28N 40°57' E 028°40'0 0.9
2017-Dec-24 07:55N 40°58' E 028°40'0 0.0
2017-Dec-24 07:28N 40°58' E 028°40'0 0.0
2017-Dec-24 06:58N 40°58' E 028°40'0 0.0
2017-Dec-24 06:19N 40°58' E 028°40'0 0.0
2017-Dec-24 05:58N 40°58' E 028°40'0 0.0
2017-Dec-24 05:22N 40°58' E 028°40'0 0.0
2017-Dec-24 04:58N 40°58' E 028°40'0 0.0
2017-Dec-24 04:28N 40°58' E 028°40'0 0.0
2017-Dec-24 03:58N 40°58' E 028°40'0 0.0
2017-Dec-24 03:28N 40°58' E 028°40'0 0.0
2017-Dec-24 02:58N 40°58' E 028°40'0 0.0
2017-Dec-24 02:28N 40°58' E 028°40'0 0.0
2017-Dec-24 01:58N 40°58' E 028°40'0 0.0
2017-Dec-24 01:28N 40°58' E 028°40'0 0.0
2017-Dec-24 00:55N 40°58' E 028°40'0 0.0
2017-Dec-24 00:28N 40°58' E 028°40'0 0.0
2017-Dec-23 23:43N 40°58' E 028°40'0 0.0
2017-Dec-23 23:28N 40°58' E 028°40'0 0.0
2017-Dec-23 22:58N 40°58' E 028°40'0 0.0
2017-Dec-23 22:22N 40°58' E 028°40'0 0.0
2017-Dec-23 21:55N 40°58' E 028°40'0 0.0
2017-Dec-23 21:28N 40°58' E 028°40'0 0.0
2017-Dec-23 20:58N 40°58' E 028°40'0 0.0
2017-Dec-23 20:28N 40°58' E 028°40'0 0.0
2017-Dec-23 19:58N 40°58' E 028°40'0 0.0
2017-Dec-23 19:28N 40°58' E 028°40'0 0.0
2017-Dec-23 18:55N 40°58' E 028°40'0 0.0
2017-Dec-23 18:25N 40°58' E 028°40'0 0.0
2017-Dec-23 17:58N 40°58' E 028°40'0 0.0
2017-Dec-23 17:28N 40°58' E 028°40'0 0.0
2017-Dec-23 16:58N 40°58' E 028°40'0 0.0
2017-Dec-23 16:28N 40°58' E 028°40'0 0.0
2017-Dec-23 15:58N 40°58' E 028°40'0 0.0
2017-Dec-23 15:28N 40°58' E 028°40'0 0.0
2017-Dec-23 14:58N 40°58' E 028°40'0 0.0
2017-Dec-23 14:28N 40°58' E 028°40'0 0.0
2017-Dec-23 13:49N 40°58' E 028°40'0 0.0
2017-Dec-23 13:26N 40°58' E 028°40'2 2.0
2017-Dec-23 12:32N 40°56' E 028°41'0 4.4
2017-Dec-23 12:30N 40°56' E 028°41'4 8.7
2017-Dec-23 12:00N 40°51' E 028°40'611.7
2017-Dec-23 11:29N 40°45' E 028°38'0 0.8
2017-Dec-23 10:54N 40°45' E 028°38'1 1.3
2017-Dec-23 10:27N 40°45' E 028°38'1 1.4
2017-Dec-23 09:59N 40°45' E 028°37'0 0.5
2017-Dec-23 09:30N 40°45' E 028°37'2 2.1
2017-Dec-23 08:48N 40°44' E 028°36'1 2.5
2017-Dec-23 08:30N 40°44' E 028°37'1 1.3
2017-Dec-23 08:00N 40°45' E 028°37'1 1.5
2017-Dec-23 07:28N 40°45' E 028°38'1 1.6
2017-Dec-23 07:00N 40°46' E 028°39'0 0.9
2017-Dec-23 06:30N 40°46' E 028°39'0 0.8
2017-Dec-23 06:00N 40°46' E 028°39'0 0.7
2017-Dec-23 05:30N 40°47' E 028°39'0 0.5
2017-Dec-23 04:59N 40°47' E 028°39'1 2.2
2017-Dec-23 04:28N 40°46' E 028°37'1 1.1
2017-Dec-23 03:59N 40°46' E 028°38'1 1.2
2017-Dec-23 03:30N 40°47' E 028°39'2 2.8
2017-Dec-23 02:58N 40°47' E 028°37'0 0.9
2017-Dec-23 02:23N 40°47' E 028°36'2 3.9
2017-Dec-23 01:59N 40°46' E 028°37'1 1.6
2017-Dec-23 01:30N 40°46' E 028°38'1 0.9
2017-Dec-23 00:56N 40°47' E 028°38'1 2.2
2017-Dec-23 00:30N 40°46' E 028°38'0 0.6
2017-Dec-23 00:00N 40°46' E 028°38'1 1.3
2017-Dec-22 23:26N 40°47' E 028°39'1 1.7
2017-Dec-22 22:46N 40°46' E 028°37'0 0.5
2017-Dec-22 22:05N 40°46' E 028°37'0 0.6
2017-Dec-22 21:58N 40°46' E 028°37'1 1.5
2017-Dec-22 21:13N 40°46' E 028°35'0 0.4
2017-Dec-22 20:49N 40°46' E 028°36'2 1.2
2017-Dec-22 19:23N 40°45' E 028°34'1 1.4
2017-Dec-22 18:51N 40°45' E 028°35'1 1.5
2017-Dec-22 18:15N 40°45' E 028°36'0 1.4
2017-Dec-22 17:58N 40°46' E 028°36'1 1.4
2017-Dec-22 17:21N 40°46' E 028°37'1 1.4
2017-Dec-22 16:51N 40°46' E 028°38'0 1.2
2017-Dec-22 16:28N 40°46' E 028°39'1 1.1
2017-Dec-22 15:58N 40°46' E 028°39'1 1.8
2017-Dec-22 15:27N 40°47' E 028°40'4 9.6
2017-Dec-22 14:59N 40°51' E 028°43'715.2
2017-Dec-22 14:31N 40°54' E 028°51'713.9
2017-Dec-22 14:00N 40°58' E 028°59'5 9.2
2017-Dec-22 13:29N 41°03' E 029°02'22 4.1
2017-Dec-22 08:09N 41°24' E 028°54'1 2.3
2017-Dec-22 07:51N 41°23' E 028°54'1 1.7
2017-Dec-22 07:27N 41°22' E 028°54'11 5.5
2017-Dec-22 05:26N 41°29' E 029°06'15811.1
2017-Dec-21 15:12N 44°06' E 028°40'0 0.0
2017-Dec-21 15:00N 44°06' E 028°40'0 0.0
2017-Dec-21 14:30N 44°06' E 028°40'0 0.0
2017-Dec-21 14:00N 44°06' E 028°40'0 0.0
2017-Dec-21 13:30N 44°06' E 028°40'0 0.0
2017-Dec-21 13:00N 44°06' E 028°40'0 0.0
2017-Dec-21 12:30N 44°06' E 028°40'0 0.0
2017-Dec-21 12:00N 44°06' E 028°40'0 0.0
2017-Dec-21 11:30N 44°06' E 028°40'0 0.0
2017-Dec-21 11:00N 44°06' E 028°40'0 0.0
2017-Dec-21 10:30N 44°06' E 028°40'0 0.0
2017-Dec-21 10:00N 44°06' E 028°40'0 0.0
2017-Dec-21 09:24N 44°06' E 028°40'0 0.0
2017-Dec-21 09:00N 44°06' E 028°40'0 0.0
2017-Dec-21 08:30N 44°06' E 028°40'0 0.0
2017-Dec-21 08:00N 44°06' E 028°40'0 0.0
2017-Dec-21 07:30N 44°06' E 028°40'0 0.0
2017-Dec-21 07:00N 44°06' E 028°40'0 0.0
2017-Dec-21 06:30N 44°06' E 028°40'0 0.0
2017-Dec-21 06:00N 44°06' E 028°40'0 0.0
2017-Dec-21 05:30N 44°06' E 028°40'0 0.0
2017-Dec-21 05:00N 44°06' E 028°40'0 0.0
2017-Dec-21 04:30N 44°06' E 028°40'0 0.0
2017-Dec-21 04:00N 44°06' E 028°40'0 0.0
2017-Dec-21 03:30N 44°06' E 028°40'0 0.0
2017-Dec-21 03:00N 44°06' E 028°40'0 0.0
2017-Dec-21 02:30N 44°06' E 028°40'0 0.0
2017-Dec-21 02:00N 44°06' E 028°40'0 0.0
2017-Dec-21 01:30N 44°06' E 028°40'0 0.0
2017-Dec-21 01:00N 44°06' E 028°40'0 0.0
2017-Dec-21 00:30N 44°06' E 028°40'0 0.0
2017-Dec-21 00:00N 44°06' E 028°40'0 0.0
2017-Dec-20 23:29N 44°06' E 028°40'0 0.0
2017-Dec-20 22:59N 44°06' E 028°40'0 0.0
2017-Dec-20 22:29N 44°06' E 028°40'0 0.0
2017-Dec-20 21:59N 44°06' E 028°40'0 0.0
2017-Dec-20 21:29N 44°06' E 028°40'0 0.0
2017-Dec-20 20:59N 44°06' E 028°40'0 0.0
2017-Dec-20 20:29N 44°06' E 028°40'0 0.0
2017-Dec-20 19:59N 44°06' E 028°40'0 0.0
2017-Dec-20 19:29N 44°06' E 028°40'0 0.0
2017-Dec-20 18:59N 44°06' E 028°40'0 0.0
2017-Dec-20 18:29N 44°06' E 028°40'0 0.0
2017-Dec-20 17:59N 44°06' E 028°40'0 0.0
2017-Dec-20 17:29N 44°06' E 028°40'0 0.0
2017-Dec-20 16:59N 44°06' E 028°40'0 0.0
2017-Dec-20 16:29N 44°06' E 028°40'0 0.0
2017-Dec-20 15:59N 44°06' E 028°40'0 0.0
2017-Dec-20 15:29N 44°06' E 028°40'0 0.0
2017-Dec-20 15:00N 44°06' E 028°40'2 3.2
2017-Dec-20 14:30N 44°06' E 028°42'3 5.1
2017-Dec-20 14:00N 44°05' E 028°45'3 5.0
2017-Dec-20 13:28N 44°07' E 028°47'0 0.2
2017-Dec-20 12:58N 44°07' E 028°47'0 0.0
2017-Dec-20 12:28N 44°07' E 028°47'0 0.0
2017-Dec-20 11:58N 44°07' E 028°47'0 0.1
2017-Dec-20 11:28N 44°07' E 028°47'0 0.0
2017-Dec-20 10:58N 44°07' E 028°47'0 0.0
2017-Dec-20 10:28N 44°07' E 028°47'0 0.0
2017-Dec-20 09:58N 44°07' E 028°47'0 0.0
2017-Dec-20 09:28N 44°07' E 028°47'0 0.1
2017-Dec-20 09:01N 44°07' E 028°47'0 0.0
2017-Dec-20 08:31N 44°07' E 028°47'0 0.0
2017-Dec-20 08:01N 44°07' E 028°47'0 0.0
2017-Dec-20 07:30N 44°07' E 028°47'0 0.0
2017-Dec-20 07:00N 44°07' E 028°47'0 0.1
2017-Dec-20 06:30N 44°07' E 028°47'0 0.0
2017-Dec-20 06:00N 44°07' E 028°47'0 0.0
2017-Dec-20 05:30N 44°07' E 028°47'0 0.0
2017-Dec-20 05:00N 44°07' E 028°47'0 0.1
2017-Dec-20 04:30N 44°07' E 028°47'0 0.0
2017-Dec-20 04:00N 44°07' E 028°47'0 0.0
2017-Dec-20 03:30N 44°07' E 028°47'0 0.1
2017-Dec-20 03:00N 44°07' E 028°47'0 0.2
2017-Dec-20 02:30N 44°07' E 028°47'0 0.0
2017-Dec-20 02:00N 44°07' E 028°47'0 0.0
2017-Dec-20 01:30N 44°07' E 028°47'0 0.0
2017-Dec-20 01:00N 44°07' E 028°47'0 0.0
2017-Dec-20 00:30N 44°07' E 028°47'0 0.0
2017-Dec-20 00:00N 44°07' E 028°47'0 0.1
2017-Dec-19 23:30N 44°07' E 028°47'0 0.0
2017-Dec-19 23:00N 44°07' E 028°47'0 0.0
2017-Dec-19 22:30N 44°07' E 028°47'0 0.1
2017-Dec-19 22:00N 44°07' E 028°47'0 0.0
2017-Dec-19 21:30N 44°07' E 028°47'0 0.1
2017-Dec-19 21:00N 44°07' E 028°47'0 0.0
2017-Dec-19 20:30N 44°07' E 028°47'0 0.0
2017-Dec-19 20:00N 44°07' E 028°47'0 0.0
2017-Dec-19 19:30N 44°07' E 028°47'0 0.0
2017-Dec-19 19:00N 44°07' E 028°47'0 0.0
2017-Dec-19 18:30N 44°07' E 028°47'0 0.0
2017-Dec-19 18:00N 44°07' E 028°47'0 0.0
2017-Dec-19 17:30N 44°07' E 028°47'0 0.0
2017-Dec-19 17:00N 44°07' E 028°47'0 0.0
2017-Dec-19 16:30N 44°07' E 028°47'0 0.0
2017-Dec-19 16:00N 44°07' E 028°47'0 0.0
2017-Dec-19 15:30N 44°07' E 028°47'0 0.0
2017-Dec-19 15:00N 44°07' E 028°47'0 0.0
2017-Dec-19 14:30N 44°07' E 028°47'0 0.1
2017-Dec-19 14:00N 44°07' E 028°47'0 0.0
2017-Dec-19 13:30N 44°07' E 028°47'0 0.0
2017-Dec-19 13:00N 44°07' E 028°47'0 0.0
2017-Dec-19 12:30N 44°07' E 028°47'0 0.0
2017-Dec-19 12:00N 44°07' E 028°47'0 0.0
2017-Dec-19 11:30N 44°07' E 028°47'0 0.0
2017-Dec-19 11:00N 44°07' E 028°47'0 0.0
2017-Dec-19 10:30N 44°07' E 028°47'0 0.0
2017-Dec-19 10:00N 44°07' E 028°47'0 0.0
2017-Dec-19 09:30N 44°07' E 028°47'0 0.0
2017-Dec-19 09:00N 44°07' E 028°47'0 0.1
2017-Dec-19 08:30N 44°07' E 028°47'0 0.0
2017-Dec-19 08:00N 44°07' E 028°47'0 0.0
2017-Dec-19 07:27N 44°07' E 028°47'0 0.1
2017-Dec-19 07:00N 44°07' E 028°47'0 0.0
2017-Dec-19 06:30N 44°07' E 028°47'0 0.0
2017-Dec-19 06:00N 44°07' E 028°47'0 0.0
2017-Dec-19 05:30N 44°07' E 028°47'0 0.0
2017-Dec-19 05:00N 44°07' E 028°47'0 0.0
2017-Dec-19 04:30N 44°07' E 028°47'0 0.0
2017-Dec-19 04:00N 44°07' E 028°47'0 0.0
2017-Dec-19 03:30N 44°07' E 028°47'0 0.0
2017-Dec-19 03:00N 44°07' E 028°47'0 0.0
2017-Dec-19 02:30N 44°07' E 028°47'0 0.0
2017-Dec-19 02:00N 44°07' E 028°47'0 0.0
2017-Dec-19 01:30N 44°07' E 028°47'0 0.0
2017-Dec-19 00:54N 44°07' E 028°47'0 0.0
2017-Dec-19 00:30N 44°07' E 028°47'0 0.0
2017-Dec-19 00:00N 44°07' E 028°47'0 0.0
2017-Dec-18 23:30N 44°07' E 028°47'0 0.0
2017-Dec-18 23:00N 44°07' E 028°47'0 0.0
2017-Dec-18 22:30N 44°07' E 028°47'0 0.0
2017-Dec-18 22:00N 44°07' E 028°47'0 0.0
2017-Dec-18 21:30N 44°07' E 028°47'0 0.1
2017-Dec-18 21:00N 44°07' E 028°47'0 0.1
2017-Dec-18 20:30N 44°07' E 028°47'0 0.0
2017-Dec-18 19:59N 44°07' E 028°47'0 0.0
2017-Dec-18 19:29N 44°07' E 028°47'0 0.0
2017-Dec-18 18:56N 44°07' E 028°47'0 0.0
2017-Dec-18 18:29N 44°07' E 028°47'0 0.1
2017-Dec-18 17:59N 44°07' E 028°47'0 0.0
2017-Dec-18 17:29N 44°07' E 028°47'0 0.0
2017-Dec-18 16:59N 44°07' E 028°47'0 0.1
2017-Dec-18 16:29N 44°07' E 028°47'0 0.1
2017-Dec-18 15:59N 44°07' E 028°47'0 0.0
2017-Dec-18 15:29N 44°07' E 028°47'0 0.0
2017-Dec-18 14:59N 44°07' E 028°47'0 0.0
2017-Dec-18 14:29N 44°07' E 028°47'0 0.0
2017-Dec-18 13:59N 44°07' E 028°47'0 0.0
2017-Dec-18 13:29N 44°07' E 028°47'0 0.0
2017-Dec-18 12:59N 44°07' E 028°47'0 0.0
2017-Dec-18 12:29N 44°07' E 028°47'0 0.0
2017-Dec-18 11:59N 44°07' E 028°47'0 0.0
2017-Dec-18 11:29N 44°07' E 028°47'0 0.0
2017-Dec-18 10:59N 44°07' E 028°47'0 0.0
2017-Dec-18 10:29N 44°07' E 028°47'0 0.0
2017-Dec-18 09:59N 44°07' E 028°47'0 0.0
2017-Dec-18 09:29N 44°07' E 028°47'0 0.0
2017-Dec-18 08:59N 44°07' E 028°47'0 0.0
2017-Dec-18 08:29N 44°07' E 028°47'0 0.2
2017-Dec-18 08:01N 44°07' E 028°47'3 6.6
2017-Dec-18 07:30N 44°04' E 028°50'5 9.6
2017-Dec-18 07:01N 44°01' E 028°55'611.8
2017-Dec-18 06:30N 44°04' E 029°02'611.8
2017-Dec-18 06:00N 44°07' E 029°09'510.4
2017-Dec-18 05:30N 44°10' E 029°15'5 9.4
2017-Dec-18 05:00N 44°13' E 029°20'5 9.5
2017-Dec-18 04:30N 44°16' E 029°26'5 9.4
2017-Dec-18 04:01N 44°18' E 029°31'4 8.5
2017-Dec-18 03:29N 44°20' E 029°37'126 9.7
2017-Dec-17 14:32N 46°13' E 030°57'211.4
2017-Dec-17 14:24N 46°14' E 030°55'511.0
2017-Dec-17 13:54N 46°17' E 030°49'7 7.0
2017-Dec-17 12:54N 46°20' E 030°40'0 0.0
2017-Dec-16 15:15N 46°20' E 030°40'0 0.0
2017-Dec-16 08:09N 46°20' E 030°40'0 0.0
2017-Dec-16 08:00N 46°20' E 030°40'4 2.6
2017-Dec-16 06:27N 46°17' E 030°44'0 0.0
2017-Dec-15 23:20N 46°17' E 030°44'0 0.0
2017-Dec-15 22:24N 46°17' E 030°44'0 0.0
2017-Dec-15 21:49N 46°17' E 030°44'  
Track history (hours):
 
Tides and Currents Weather Stations Pressure Air Temp Water Temp Dewpoint Dewpoint Depression Visibility Wind Speed Wind Dir Waves Ship Positions

Maersk Klaipeda

Last reported at 2017-Dec-25 21:17 UTC. Time now 2018-Jan-24 07:51 UTC.
Position N 35°52' E 030°23'.
Warning: this ship's position is 29 days out of date.

Length 300 m; draft 12 m.

Type: Ship (hazmat cat A). MMSI: 477728600.

Date/timePositionNaut miles runAvg speedWind from/ knotsBaromVisibWave heightAir tempDewpointWater temp
2017-Dec-25 21:17N 35°52' E 030°23'17615.1
2017-Dec-25 09:38N 36°29' E 026°50'216.2
2017-Dec-25 09:30N 36°31' E 026°48'916.0
2017-Dec-25 08:57N 36°37' E 026°40'715.9
2017-Dec-25 08:30N 36°42' E 026°34'815.8
2017-Dec-25 08:00N 36°47' E 026°27'815.9
2017-Dec-25 07:30N 36°53' E 026°20'1016.0
2017-Dec-25 06:54N 36°60' E 026°12'616.1
2017-Dec-25 06:30N 37°06' E 026°08'816.1
2017-Dec-25 06:00N 37°13' E 026°04'816.0
2017-Dec-25 05:30N 37°20' E 026°00'815.8
2017-Dec-25 05:00N 37°27' E 025°56'816.1
2017-Dec-25 04:30N 37°35' E 025°52'1016.0
2017-Dec-25 03:53N 37°45' E 025°49'716.1
2017-Dec-25 03:25N 37°52' E 025°48'22212.1
2017-Dec-24 09:02N 40°53' E 028°33'116.2
2017-Dec-24 08:58N 40°53' E 028°34'611.6
2017-Dec-24 08:28N 40°57' E 028°40'0 0.9
2017-Dec-24 07:55N 40°58' E 028°40'0 0.0
2017-Dec-24 07:28N 40°58' E 028°40'0 0.0
2017-Dec-24 06:58N 40°58' E 028°40'0 0.0
2017-Dec-24 06:19N 40°58' E 028°40'0 0.0
2017-Dec-24 05:58N 40°58' E 028°40'0 0.0
2017-Dec-24 05:22N 40°58' E 028°40'0 0.0
2017-Dec-24 04:58N 40°58' E 028°40'0 0.0
2017-Dec-24 04:28N 40°58' E 028°40'0 0.0
2017-Dec-24 03:58N 40°58' E 028°40'0 0.0
2017-Dec-24 03:28N 40°58' E 028°40'0 0.0
2017-Dec-24 02:58N 40°58' E 028°40'0 0.0
2017-Dec-24 02:28N 40°58' E 028°40'0 0.0
2017-Dec-24 01:58N 40°58' E 028°40'0 0.0
2017-Dec-24 01:28N 40°58' E 028°40'0 0.0
2017-Dec-24 00:55N 40°58' E 028°40'0 0.0
2017-Dec-24 00:28N 40°58' E 028°40'0 0.0
2017-Dec-23 23:43N 40°58' E 028°40'0 0.0
2017-Dec-23 23:28N 40°58' E 028°40'0 0.0
2017-Dec-23 22:58N 40°58' E 028°40'0 0.0
2017-Dec-23 22:22N 40°58' E 028°40'0 0.0
2017-Dec-23 21:55N 40°58' E 028°40'0 0.0
2017-Dec-23 21:28N 40°58' E 028°40'0 0.0
2017-Dec-23 20:58N 40°58' E 028°40'0 0.0
2017-Dec-23 20:28N 40°58' E 028°40'0 0.0
2017-Dec-23 19:58N 40°58' E 028°40'0 0.0
2017-Dec-23 19:28N 40°58' E 028°40'0 0.0
2017-Dec-23 18:55N 40°58' E 028°40'0 0.0
2017-Dec-23 18:25N 40°58' E 028°40'0 0.0
2017-Dec-23 17:58N 40°58' E 028°40'0 0.0
2017-Dec-23 17:28N 40°58' E 028°40'0 0.0
2017-Dec-23 16:58N 40°58' E 028°40'0 0.0
2017-Dec-23 16:28N 40°58' E 028°40'0 0.0
2017-Dec-23 15:58N 40°58' E 028°40'0 0.0
2017-Dec-23 15:28N 40°58' E 028°40'0 0.0
2017-Dec-23 14:58N 40°58' E 028°40'0 0.0
2017-Dec-23 14:28N 40°58' E 028°40'0 0.0
2017-Dec-23 13:49N 40°58' E 028°40'0 0.0
2017-Dec-23 13:26N 40°58' E 028°40'2 2.0
2017-Dec-23 12:32N 40°56' E 028°41'0 4.4
2017-Dec-23 12:30N 40°56' E 028°41'4 8.7
2017-Dec-23 12:00N 40°51' E 028°40'611.7
2017-Dec-23 11:29N 40°45' E 028°38'0 0.8
2017-Dec-23 10:54N 40°45' E 028°38'1 1.3
2017-Dec-23 10:27N 40°45' E 028°38'1 1.4
2017-Dec-23 09:59N 40°45' E 028°37'0 0.5
2017-Dec-23 09:30N 40°45' E 028°37'2 2.1
2017-Dec-23 08:48N 40°44' E 028°36'1 2.5
2017-Dec-23 08:30N 40°44' E 028°37'1 1.3
2017-Dec-23 08:00N 40°45' E 028°37'1 1.5
2017-Dec-23 07:28N 40°45' E 028°38'1 1.6
2017-Dec-23 07:00N 40°46' E 028°39'0 0.9
2017-Dec-23 06:30N 40°46' E 028°39'0 0.8
2017-Dec-23 06:00N 40°46' E 028°39'0 0.7
2017-Dec-23 05:30N 40°47' E 028°39'0 0.5
2017-Dec-23 04:59N 40°47' E 028°39'1 2.2
2017-Dec-23 04:28N 40°46' E 028°37'1 1.1
2017-Dec-23 03:59N 40°46' E 028°38'1 1.2
2017-Dec-23 03:30N 40°47' E 028°39'2 2.8
2017-Dec-23 02:58N 40°47' E 028°37'0 0.9
2017-Dec-23 02:23N 40°47' E 028°36'2 3.9
2017-Dec-23 01:59N 40°46' E 028°37'1 1.6
2017-Dec-23 01:30N 40°46' E 028°38'1 0.9
2017-Dec-23 00:56N 40°47' E 028°38'1 2.2
2017-Dec-23 00:30N 40°46' E 028°38'0 0.6
2017-Dec-23 00:00N 40°46' E 028°38'1 1.3
2017-Dec-22 23:26N 40°47' E 028°39'1 1.7
2017-Dec-22 22:46N 40°46' E 028°37'0 0.5
2017-Dec-22 22:05N 40°46' E 028°37'0 0.6
2017-Dec-22 21:58N 40°46' E 028°37'1 1.5
2017-Dec-22 21:13N 40°46' E 028°35'0 0.4
2017-Dec-22 20:49N 40°46' E 028°36'2 1.2
2017-Dec-22 19:23N 40°45' E 028°34'1 1.4
2017-Dec-22 18:51N 40°45' E 028°35'1 1.5
2017-Dec-22 18:15N 40°45' E 028°36'0 1.4
2017-Dec-22 17:58N 40°46' E 028°36'1 1.4
2017-Dec-22 17:21N 40°46' E 028°37'1 1.4
2017-Dec-22 16:51N 40°46' E 028°38'0 1.2
2017-Dec-22 16:28N 40°46' E 028°39'1 1.1
2017-Dec-22 15:58N 40°46' E 028°39'1 1.8
2017-Dec-22 15:27N 40°47' E 028°40'4 9.6
2017-Dec-22 14:59N 40°51' E 028°43'715.2
2017-Dec-22 14:31N 40°54' E 028°51'713.9
2017-Dec-22 14:00N 40°58' E 028°59'5 9.2
2017-Dec-22 13:29N 41°03' E 029°02'22 4.1
2017-Dec-22 08:09N 41°24' E 028°54'1 2.3
2017-Dec-22 07:51N 41°23' E 028°54'1 1.7
2017-Dec-22 07:27N 41°22' E 028°54'11 5.5
2017-Dec-22 05:26N 41°29' E 029°06'15811.1
2017-Dec-21 15:12N 44°06' E 028°40'0 0.0
2017-Dec-21 15:00N 44°06' E 028°40'0 0.0
2017-Dec-21 14:30N 44°06' E 028°40'0 0.0
2017-Dec-21 14:00N 44°06' E 028°40'0 0.0
2017-Dec-21 13:30N 44°06' E 028°40'0 0.0
2017-Dec-21 13:00N 44°06' E 028°40'0 0.0
2017-Dec-21 12:30N 44°06' E 028°40'0 0.0
2017-Dec-21 12:00N 44°06' E 028°40'0 0.0
2017-Dec-21 11:30N 44°06' E 028°40'0 0.0
2017-Dec-21 11:00N 44°06' E 028°40'0 0.0
2017-Dec-21 10:30N 44°06' E 028°40'0 0.0
2017-Dec-21 10:00N 44°06' E 028°40'0 0.0
2017-Dec-21 09:24N 44°06' E 028°40'0 0.0
2017-Dec-21 09:00N 44°06' E 028°40'0 0.0
2017-Dec-21 08:30N 44°06' E 028°40'0 0.0
2017-Dec-21 08:00N 44°06' E 028°40'0 0.0
2017-Dec-21 07:30N 44°06' E 028°40'0 0.0
2017-Dec-21 07:00N 44°06' E 028°40'0 0.0
2017-Dec-21 06:30N 44°06' E 028°40'0 0.0
2017-Dec-21 06:00N 44°06' E 028°40'0 0.0
2017-Dec-21 05:30N 44°06' E 028°40'0 0.0
2017-Dec-21 05:00N 44°06' E 028°40'0 0.0
2017-Dec-21 04:30N 44°06' E 028°40'0 0.0
2017-Dec-21 04:00N 44°06' E 028°40'0 0.0
2017-Dec-21 03:30N 44°06' E 028°40'0 0.0
2017-Dec-21 03:00N 44°06' E 028°40'0 0.0
2017-Dec-21 02:30N 44°06' E 028°40'0 0.0
2017-Dec-21 02:00N 44°06' E 028°40'0 0.0
2017-Dec-21 01:30N 44°06' E 028°40'0 0.0
2017-Dec-21 01:00N 44°06' E 028°40'0 0.0
2017-Dec-21 00:30N 44°06' E 028°40'0 0.0
2017-Dec-21 00:00N 44°06' E 028°40'0 0.0
2017-Dec-20 23:29N 44°06' E 028°40'0 0.0
2017-Dec-20 22:59N 44°06' E 028°40'0 0.0
2017-Dec-20 22:29N 44°06' E 028°40'0 0.0
2017-Dec-20 21:59N 44°06' E 028°40'0 0.0
2017-Dec-20 21:29N 44°06' E 028°40'0 0.0
2017-Dec-20 20:59N 44°06' E 028°40'0 0.0
2017-Dec-20 20:29N 44°06' E 028°40'0 0.0
2017-Dec-20 19:59N 44°06' E 028°40'0 0.0
2017-Dec-20 19:29N 44°06' E 028°40'0 0.0
2017-Dec-20 18:59N 44°06' E 028°40'0 0.0
2017-Dec-20 18:29N 44°06' E 028°40'0 0.0
2017-Dec-20 17:59N 44°06' E 028°40'0 0.0
2017-Dec-20 17:29N 44°06' E 028°40'0 0.0
2017-Dec-20 16:59N 44°06' E 028°40'0 0.0
2017-Dec-20 16:29N 44°06' E 028°40'0 0.0
2017-Dec-20 15:59N 44°06' E 028°40'0 0.0
2017-Dec-20 15:29N 44°06' E 028°40'0 0.0
2017-Dec-20 15:00N 44°06' E 028°40'2 3.2
2017-Dec-20 14:30N 44°06' E 028°42'3 5.1
2017-Dec-20 14:00N 44°05' E 028°45'3 5.0
2017-Dec-20 13:28N 44°07' E 028°47'0 0.2
2017-Dec-20 12:58N 44°07' E 028°47'0 0.0
2017-Dec-20 12:28N 44°07' E 028°47'0 0.0
2017-Dec-20 11:58N 44°07' E 028°47'0 0.1
2017-Dec-20 11:28N 44°07' E 028°47'0 0.0
2017-Dec-20 10:58N 44°07' E 028°47'0 0.0
2017-Dec-20 10:28N 44°07' E 028°47'0 0.0
2017-Dec-20 09:58N 44°07' E 028°47'0 0.0
2017-Dec-20 09:28N 44°07' E 028°47'0 0.1
2017-Dec-20 09:01N 44°07' E 028°47'0 0.0
2017-Dec-20 08:31N 44°07' E 028°47'0 0.0
2017-Dec-20 08:01N 44°07' E 028°47'0 0.0
2017-Dec-20 07:30N 44°07' E 028°47'0 0.0
2017-Dec-20 07:00N 44°07' E 028°47'0 0.1
2017-Dec-20 06:30N 44°07' E 028°47'0 0.0
2017-Dec-20 06:00N 44°07' E 028°47'0 0.0
2017-Dec-20 05:30N 44°07' E 028°47'0 0.0
2017-Dec-20 05:00N 44°07' E 028°47'0 0.1
2017-Dec-20 04:30N 44°07' E 028°47'0 0.0
2017-Dec-20 04:00N 44°07' E 028°47'0 0.0
2017-Dec-20 03:30N 44°07' E 028°47'0 0.1
2017-Dec-20 03:00N 44°07' E 028°47'0 0.2
2017-Dec-20 02:30N 44°07' E 028°47'0 0.0
2017-Dec-20 02:00N 44°07' E 028°47'0 0.0
2017-Dec-20 01:30N 44°07' E 028°47'0 0.0
2017-Dec-20 01:00N 44°07' E 028°47'0 0.0
2017-Dec-20 00:30N 44°07' E 028°47'0 0.0
2017-Dec-20 00:00N 44°07' E 028°47'0 0.1
2017-Dec-19 23:30N 44°07' E 028°47'0 0.0
2017-Dec-19 23:00N 44°07' E 028°47'0 0.0
2017-Dec-19 22:30N 44°07' E 028°47'0 0.1
2017-Dec-19 22:00N 44°07' E 028°47'0 0.0
2017-Dec-19 21:30N 44°07' E 028°47'0 0.1
2017-Dec-19 21:00N 44°07' E 028°47'0 0.0
2017-Dec-19 20:30N 44°07' E 028°47'0 0.0
2017-Dec-19 20:00N 44°07' E 028°47'0 0.0
2017-Dec-19 19:30N 44°07' E 028°47'0 0.0
2017-Dec-19 19:00N 44°07' E 028°47'0 0.0
2017-Dec-19 18:30N 44°07' E 028°47'0 0.0
2017-Dec-19 18:00N 44°07' E 028°47'0 0.0
2017-Dec-19 17:30N 44°07' E 028°47'0 0.0
2017-Dec-19 17:00N 44°07' E 028°47'0 0.0
2017-Dec-19 16:30N 44°07' E 028°47'0 0.0
2017-Dec-19 16:00N 44°07' E 028°47'0 0.0
2017-Dec-19 15:30N 44°07' E 028°47'0 0.0
2017-Dec-19 15:00N 44°07' E 028°47'0 0.0
2017-Dec-19 14:30N 44°07' E 028°47'0 0.1
2017-Dec-19 14:00N 44°07' E 028°47'0 0.0
2017-Dec-19 13:30N 44°07' E 028°47'0 0.0
2017-Dec-19 13:00N 44°07' E 028°47'0 0.0
2017-Dec-19 12:30N 44°07' E 028°47'0 0.0
2017-Dec-19 12:00N 44°07' E 028°47'0 0.0
2017-Dec-19 11:30N 44°07' E 028°47'0 0.0
2017-Dec-19 11:00N 44°07' E 028°47'0 0.0
2017-Dec-19 10:30N 44°07' E 028°47'0 0.0
2017-Dec-19 10:00N 44°07' E 028°47'0 0.0
2017-Dec-19 09:30N 44°07' E 028°47'0 0.0
2017-Dec-19 09:00N 44°07' E 028°47'0 0.1
2017-Dec-19 08:30N 44°07' E 028°47'0 0.0
2017-Dec-19 08:00N 44°07' E 028°47'0 0.0
2017-Dec-19 07:27N 44°07' E 028°47'0 0.1
2017-Dec-19 07:00N 44°07' E 028°47'0 0.0
2017-Dec-19 06:30N 44°07' E 028°47'0 0.0
2017-Dec-19 06:00N 44°07' E 028°47'0 0.0
2017-Dec-19 05:30N 44°07' E 028°47'0 0.0
2017-Dec-19 05:00N 44°07' E 028°47'0 0.0
2017-Dec-19 04:30N 44°07' E 028°47'0 0.0
2017-Dec-19 04:00N 44°07' E 028°47'0 0.0
2017-Dec-19 03:30N 44°07' E 028°47'0 0.0
2017-Dec-19 03:00N 44°07' E 028°47'0 0.0
2017-Dec-19 02:30N 44°07' E 028°47'0 0.0
2017-Dec-19 02:00N 44°07' E 028°47'0 0.0
2017-Dec-19 01:30N 44°07' E 028°47'0 0.0
2017-Dec-19 00:54N 44°07' E 028°47'0 0.0
2017-Dec-19 00:30N 44°07' E 028°47'0 0.0
2017-Dec-19 00:00N 44°07' E 028°47'0 0.0
2017-Dec-18 23:30N 44°07' E 028°47'0 0.0
2017-Dec-18 23:00N 44°07' E 028°47'0 0.0
2017-Dec-18 22:30N 44°07' E 028°47'0 0.0
2017-Dec-18 22:00N 44°07' E 028°47'0 0.0
2017-Dec-18 21:30N 44°07' E 028°47'0 0.1
2017-Dec-18 21:00N 44°07' E 028°47'0 0.1
2017-Dec-18 20:30N 44°07' E 028°47'0 0.0
2017-Dec-18 19:59N 44°07' E 028°47'0 0.0
2017-Dec-18 19:29N 44°07' E 028°47'0 0.0
2017-Dec-18 18:56N 44°07' E 028°47'0 0.0
2017-Dec-18 18:29N 44°07' E 028°47'0 0.1
2017-Dec-18 17:59N 44°07' E 028°47'0 0.0
2017-Dec-18 17:29N 44°07' E 028°47'0 0.0
2017-Dec-18 16:59N 44°07' E 028°47'0 0.1
2017-Dec-18 16:29N 44°07' E 028°47'0 0.1
2017-Dec-18 15:59N 44°07' E 028°47'0 0.0
2017-Dec-18 15:29N 44°07' E 028°47'0 0.0
2017-Dec-18 14:59N 44°07' E 028°47'0 0.0
2017-Dec-18 14:29N 44°07' E 028°47'0 0.0
2017-Dec-18 13:59N 44°07' E 028°47'0 0.0
2017-Dec-18 13:29N 44°07' E 028°47'0 0.0
2017-Dec-18 12:59N 44°07' E 028°47'0 0.0
2017-Dec-18 12:29N 44°07' E 028°47'0 0.0
2017-Dec-18 11:59N 44°07' E 028°47'0 0.0
2017-Dec-18 11:29N 44°07' E 028°47'0 0.0
2017-Dec-18 10:59N 44°07' E 028°47'0 0.0
2017-Dec-18 10:29N 44°07' E 028°47'0 0.0
2017-Dec-18 09:59N 44°07' E 028°47'0 0.0
2017-Dec-18 09:29N 44°07' E 028°47'0 0.0
2017-Dec-18 08:59N 44°07' E 028°47'0 0.0
2017-Dec-18 08:29N 44°07' E 028°47'0 0.2
2017-Dec-18 08:01N 44°07' E 028°47'3 6.6
2017-Dec-18 07:30N 44°04' E 028°50'5 9.6
2017-Dec-18 07:01N 44°01' E 028°55'611.8
2017-Dec-18 06:30N 44°04' E 029°02'611.8
2017-Dec-18 06:00N 44°07' E 029°09'510.4
2017-Dec-18 05:30N 44°10' E 029°15'5 9.4
2017-Dec-18 05:00N 44°13' E 029°20'5 9.5
2017-Dec-18 04:30N 44°16' E 029°26'5 9.4
2017-Dec-18 04:01N 44°18' E 029°31'4 8.5
2017-Dec-18 03:29N 44°20' E 029°37'126 9.7
2017-Dec-17 14:32N 46°13' E 030°57'211.4
2017-Dec-17 14:24N 46°14' E 030°55'511.0
2017-Dec-17 13:54N 46°17' E 030°49'7 7.0
2017-Dec-17 12:54N 46°20' E 030°40'0 0.0
2017-Dec-16 15:15N 46°20' E 030°40'0 0.0
2017-Dec-16 08:09N 46°20' E 030°40'0 0.0
2017-Dec-16 08:00N 46°20' E 030°40'4 2.6
2017-Dec-16 06:27N 46°17' E 030°44'0 0.0
2017-Dec-15 23:20N 46°17' E 030°44'0 0.0
2017-Dec-15 22:24N 46°17' E 030°44'0 0.0
2017-Dec-15 21:49N 46°17' E 030°44'  

Dump ship's entire track history